Time;durP1;ratioP1;P1;durP2;ratioP2;P2;SDS_P1;SDS_P2;PMS_P1;PMS_P2;Temp;Humidity;BMP_temperature;BMP_pressure;BME280_temperature;BME280_humidity;BME280_pressure;Samples;Min_cycle;Max_cycle;Signal;HPM_P1;HPM_P2
2020/12/27 00:01:46;;;;;;;33.67;20.32;;;;;;;-1.34;68.59;94959.30;1799798;79;22243;-50
2020/12/27 00:04:16;;;;;;;46.83;25.15;;;;;;;-1.37;68.50;94960.00;1798281;79;21046;-50
2020/12/27 00:06:45;;;;;;;47.78;26.35;;;;;;;-1.40;68.46;94962.09;1799937;78;21374;-49
2020/12/27 00:09:13;;;;;;;65.80;31.05;;;;;;;-1.40;68.46;94962.09;1799898;79;21120;-50
2020/12/27 00:11:41;;;;;;;59.95;31.82;;;;;;;-1.40;68.36;94955.34;1799904;79;21129;-49
2020/12/27 00:14:10;;;;;;;60.67;32.13;;;;;;;-1.41;68.35;94963.23;1799864;79;21837;-50
2020/12/27 00:16:39;;;;;;;46.08;26.48;;;;;;;-1.45;68.34;94959.16;1799916;79;21084;-49
2020/12/27 00:19:07;;;;;;;59.15;33.00;;;;;;;-1.51;68.21;94959.84;1799908;79;21197;-49
2020/12/27 00:21:35;;;;;;;52.30;28.40;;;;;;;-1.63;68.45;94965.45;1799802;79;21066;-48
2020/12/27 00:24:03;;;;;;;51.00;28.42;;;;;;;-1.73;68.98;94966.86;1799804;78;21248;-50
2020/12/27 00:26:32;;;;;;;48.15;26.82;;;;;;;-1.76;68.96;94968.94;1799961;79;21568;-50
2020/12/27 00:29:00;;;;;;;42.53;24.75;;;;;;;-1.83;69.28;94970.75;1799895;78;21148;-49
2020/12/27 00:31:29;;;;;;;46.90;23.73;;;;;;;-1.85;69.29;94969.55;1799873;79;21359;-50
2020/12/27 00:33:57;;;;;;;37.53;22.65;;;;;;;-1.88;69.41;94968.38;1799811;79;21056;-50
2020/12/27 00:36:26;;;;;;;20.70;14.75;;;;;;;-1.85;69.79;94973.03;1799841;79;21067;-50
2020/12/27 00:38:55;;;;;;;24.70;15.65;;;;;;;-1.85;69.52;94962.25;1799844;78;21921;-50
2020/12/27 00:41:25;;;;;;;32.33;22.85;;;;;;;-1.92;69.53;94961.37;1799858;78;21124;-50
2020/12/27 00:43:54;;;;;;;31.02;18.92;;;;;;;-2.02;69.39;94961.41;1799911;79;21196;-52
2020/12/27 00:46:22;;;;;;;24.70;17.60;;;;;;;-2.12;69.74;94966.06;1799816;79;21148;-49
2020/12/27 00:48:50;;;;;;;25.65;16.95;;;;;;;-2.17;69.75;94971.77;1799839;78;21172;-50
2020/12/27 00:51:26;;;;;;;22.20;14.93;;;;;;;-2.25;69.63;94970.11;1799886;79;21076;-50
2020/12/27 00:53:55;;;;;;;22.87;15.10;;;;;;;-2.26;69.86;94975.28;1784379;79;21052;-49
2020/12/27 00:56:24;;;;;;;26.05;16.77;;;;;;;-2.32;69.59;94972.66;1799858;78;21292;-50
2020/12/27 00:59:03;;;;;;;24.95;16.05;;;;;;;-2.37;69.58;94970.28;1799251;79;21116;-50
2020/12/27 01:01:31;;;;;;;30.37;18.30;;;;;;;-2.39;70.28;94967.17;1799818;79;21156;-49
2020/12/27 01:04:01;;;;;;;24.82;17.50;;;;;;;-2.27;70.15;94971.04;1807745;78;21172;-51
2020/12/27 01:06:30;;;;;;;27.35;16.37;;;;;;;-2.22;70.09;94959.95;1807810;79;21148;-50
2020/12/27 01:09:00;;;;;;;45.28;22.15;;;;;;;-2.17;69.83;94962.33;1807376;79;21168;-50
2020/12/27 01:11:29;;;;;;;41.42;21.73;;;;;;;-2.23;69.94;94953.01;1807704;78;21069;-49
2020/12/27 01:13:57;;;;;;;33.92;17.70;;;;;;;-2.22;69.67;94954.56;1807782;79;21454;-49
2020/12/27 01:16:26;;;;;;;27.10;17.02;;;;;;;-2.31;69.47;94956.71;1807780;79;21077;-49
2020/12/27 01:18:55;;;;;;;38.48;20.77;;;;;;;-2.46;69.71;94950.91;1807782;79;21085;-49
2020/12/27 01:21:27;;;;;;;104.78;44.08;;;;;;;-2.55;69.59;94946.31;1807436;79;22226;-49
2020/12/27 01:23:55;;;;;;;124.75;51.28;;;;;;;-2.79;69.40;94948.58;1807811;78;21089;-49
2020/12/27 01:26:32;;;;;;;83.03;36.03;;;;;;;-2.92;69.85;94946.63;1807710;78;21100;-50
2020/12/27 01:29:00;;;;;;;76.77;37.05;;;;;;;-2.97;70.07;94950.96;1778457;79;21113;-49
2020/12/27 01:31:29;;;;;;;68.78;30.75;;;;;;;-3.01;70.60;94954.71;1807788;79;21100;-48
2020/12/27 01:33:59;;;;;;;91.50;44.35;;;;;;;-2.97;70.58;94957.69;1807760;78;21250;-49
2020/12/27 01:36:32;;;;;;;67.15;35.05;;;;;;;-2.94;70.87;94952.94;1807213;78;21076;-49
2020/12/27 01:39:02;;;;;;;84.00;39.85;;;;;;;-2.81;71.23;94944.91;1807701;78;21148;-50
2020/12/27 01:41:30;;;;;;;95.40;47.88;;;;;;;-2.64;70.69;94948.48;1807868;79;21596;-50
2020/12/27 01:44:02;;;;;;;88.30;43.83;;;;;;;-2.68;70.69;94942.82;1807801;79;21058;-50
2020/12/27 01:46:31;;;;;;;96.20;46.60;;;;;;;-2.69;70.62;94948.00;1807765;79;21229;-50
2020/12/27 01:49:01;;;;;;;131.97;60.33;;;;;;;-2.77;70.70;94942.27;1807959;79;21137;-49
2020/12/27 01:51:30;;;;;;;174.10;76.37;;;;;;;-2.79;70.96;94945.33;1807728;78;21068;-49
2020/12/27 01:53:59;;;;;;;176.02;82.05;;;;;;;-2.78;71.09;94944.19;1807750;79;21050;-49
2020/12/27 01:56:52;;;;;;;164.10;79.05;;;;;;;-2.67;70.91;94935.72;1872878;76;22371;-49
2020/12/27 01:59:30;;;;;;;169.95;75.72;;;;;;;-2.72;70.77;94935.26;1841587;78;21098;-49
2020/12/27 02:02:00;;;;;;;170.15;75.32;;;;;;;-2.76;70.89;94927.11;1841419;77;21568;-49
2020/12/27 02:04:46;;;;;;;147.65;68.95;;;;;;;-2.75;70.99;94931.36;1839170;78;21478;-49
2020/12/27 02:07:16;;;;;;;127.27;57.13;;;;;;;-2.68;71.05;94926.67;1841637;78;21084;-49
2020/12/27 02:09:52;;;;;;;119.33;55.28;;;;;;;-2.70;71.07;94928.95;1840576;78;21159;-49
2020/12/27 02:12:21;;;;;;;139.22;66.55;;;;;;;-2.68;71.07;94924.73;1841546;78;21141;-49
2020/12/27 02:14:54;;;;;;;130.78;65.12;;;;;;;-2.75;71.10;94919.25;1784196;78;21159;-50
2020/12/27 02:17:24;;;;;;;134.60;61.25;;;;;;;-2.78;70.98;94928.59;1840628;78;21086;-50
2020/12/27 02:19:54;;;;;;;137.18;65.62;;;;;;;-2.82;70.99;94919.14;1840041;78;21065;-50
2020/12/27 02:22:36;;;;;;;114.17;54.00;;;;;;;-2.87;71.12;94923.45;1801204;78;21061;-49
2020/12/27 02:25:07;;;;;;;106.20;56.85;;;;;;;-2.85;71.27;94919.83;1829376;78;21085;-49
2020/12/27 02:27:37;;;;;;;128.18;61.90;;;;;;;-2.88;70.82;94921.89;1841533;78;21386;-49
2020/12/27 02:30:07;;;;;;;115.28;55.78;;;;;;;-3.01;71.03;94924.56;1841477;77;21081;-49
2020/12/27 02:32:37;;;;;;;114.85;55.90;;;;;;;-3.04;71.05;94931.98;1841560;78;21061;-50
2020/12/27 02:35:05;;;;;;;111.60;56.88;;;;;;;-3.16;71.30;94928.12;1841463;77;21457;-50
2020/12/27 02:37:34;;;;;;;101.02;51.05;;;;;;;-3.23;71.48;94930.66;1839368;78;21474;-48
2020/12/27 02:40:04;;;;;;;101.30;53.68;;;;;;;-3.22;71.91;94922.80;1808320;79;21359;-49
2020/12/27 02:42:34;;;;;;;121.80;61.42;;;;;;;-3.12;71.87;94915.51;1804107;79;21081;-49
2020/12/27 02:47:48;;;;;;;108.87;52.43;;;;;;;-2.80;71.93;94909.34;1890101;76;22679;-50
2020/12/27 02:50:24;;;;;;;87.20;44.70;;;;;;;-2.87;71.62;94908.64;1857362;77;21065;-49
2020/12/27 02:52:54;;;;;;;84.62;42.70;;;;;;;-2.97;71.53;94903.08;1861019;77;21135;-50
2020/12/27 02:55:22;;;;;;;76.50;38.60;;;;;;;-3.03;71.45;94907.21;1860884;77;21132;-49
2020/12/27 02:57:52;;;;;;;58.33;31.65;;;;;;;-3.05;71.20;94908.90;1860996;77;21151;-49
2020/12/27 03:00:22;;;;;;;67.05;36.70;;;;;;;-3.10;71.29;94906.51;1861026;77;21651;-48
2020/12/27 03:03:10;;;;;;;66.72;32.85;;;;;;;-3.17;71.19;94907.73;1813566;77;21144;-48
2020/12/27 03:05:41;;;;;;;79.58;41.08;;;;;;;-3.26;71.24;94914.48;1859897;77;21367;-50
2020/12/27 03:08:10;;;;;;;70.75;36.77;;;;;;;-3.32;71.60;94901.09;1860905;77;21152;-49
2020/12/27 03:10:50;;;;;;;70.97;36.30;;;;;;;-3.20;71.58;94894.97;1857999;77;21076;-49
2020/12/27 03:13:18;;;;;;;49.70;29.30;;;;;;;-3.31;71.18;94902.09;1860998;77;21461;-49
2020/12/27 03:15:50;;;;;;;52.33;30.23;;;;;;;-3.49;71.34;94894.80;1860933;77;21053;-49
2020/12/27 03:18:22;;;;;;;57.40;30.10;;;;;;;-3.68;71.45;94887.33;1858452;77;21197;-49
2020/12/27 03:21:02;;;;;;;66.02;33.80;;;;;;;-3.83;71.80;94889.51;1746836;81;21183;-49
2020/12/27 03:23:31;;;;;;;62.48;33.63;;;;;;;-3.98;71.86;94894.36;1860916;77;21060;-49
2020/12/27 03:26:02;;;;;;;65.32;34.88;;;;;;;-4.13;72.33;94897.32;1858561;77;21147;-49
2020/12/27 03:28:31;;;;;;;74.92;35.63;;;;;;;-4.17;72.59;94897.02;1861014;77;21525;-50
2020/12/27 03:31:01;;;;;;;66.60;34.78;;;;;;;-4.09;72.78;94893.38;1860075;77;22584;-49
2020/12/27 03:33:31;;;;;;;53.25;29.87;;;;;;;-4.03;72.63;94895.99;1860576;77;21140;-49
2020/12/27 03:36:01;;;;;;;64.50;32.93;;;;;;;-4.01;72.42;94897.77;1860896;77;21092;-49
2020/12/27 03:38:31;;;;;;;48.90;29.92;;;;;;;-4.07;72.36;94887.09;1868275;76;21131;-50
2020/12/27 03:41:16;;;;;;;74.70;36.75;;;;;;;-4.13;72.44;94889.27;1890019;76;22625;-49
2020/12/27 03:43:49;;;;;;;69.03;35.95;;;;;;;-4.27;72.65;94889.53;1860293;77;21128;-50
2020/12/27 03:46:19;;;;;;;76.62;38.35;;;;;;;-4.35;73.13;94887.80;1858731;77;21406;-49
2020/12/27 03:48:49;;;;;;;79.25;40.52;;;;;;;-4.30;73.12;94890.20;1859625;77;21120;-49
2020/12/27 03:51:35;;;;;;;75.52;37.38;;;;;;;-4.28;73.13;94889.31;1860056;77;21061;-49
2020/12/27 03:54:03;;;;;;;67.30;34.13;;;;;;;-4.27;72.95;94886.84;1861023;77;21069;-51
2020/12/27 03:56:45;;;;;;;87.17;41.68;;;;;;;-4.23;72.90;94889.03;1856131;77;21101;-49
2020/12/27 03:59:24;;;;;;;115.40;57.67;;;;;;;-4.28;72.60;94892.77;1746955;81;21212;-51
2020/12/27 04:01:54;;;;;;;137.75;67.90;;;;;;;-4.32;72.81;94888.43;1860740;77;21084;-49
2020/12/27 04:04:23;;;;;;;120.40;60.75;;;;;;;-4.23;72.86;94883.08;1860930;77;21057;-49
2020/12/27 04:06:54;;;;;;;106.00;53.20;;;;;;;-4.12;72.43;94893.50;1858292;77;21501;-48
2020/12/27 04:09:28;;;;;;;94.77;47.55;;;;;;;-4.09;72.10;94898.75;1858623;77;21564;-48
2020/12/27 04:11:56;;;;;;;95.70;52.48;;;;;;;-4.08;72.05;94894.94;1827761;77;21469;-50
2020/12/27 04:14:25;;;;;;;88.22;48.02;;;;;;;-4.10;71.85;94895.27;1860861;77;21053;-48
2020/12/27 04:16:54;;;;;;;91.12;51.35;;;;;;;-4.09;71.86;94893.38;1860899;77;21056;-50
2020/12/27 04:19:23;;;;;;;111.47;60.90;;;;;;;-4.03;71.74;94895.41;1860818;77;21053;-49
2020/12/27 04:21:53;;;;;;;123.50;62.17;;;;;;;-4.02;71.56;94894.28;1858502;77;21053;-48
2020/12/27 04:24:23;;;;;;;83.03;42.58;;;;;;;-4.03;71.52;94891.96;1827307;77;21219;-49
2020/12/27 04:26:52;;;;;;;90.20;47.55;;;;;;;-4.13;70.93;94885.78;1860832;77;21128;-49
2020/12/27 04:29:20;;;;;;;104.58;48.33;;;;;;;-4.32;71.08;94889.23;1860902;77;21093;-49
2020/12/27 04:31:52;;;;;;;108.63;55.63;;;;;;;-4.38;71.29;94889.84;1860299;77;21140;-49
2020/12/27 04:34:22;;;;;;;107.85;54.30;;;;;;;-4.48;71.18;94880.97;1857877;77;21064;-50
2020/12/27 04:36:51;;;;;;;91.37;43.00;;;;;;;-4.52;71.64;94879.56;1860903;77;21188;-49
2020/12/27 04:39:21;;;;;;;84.80;39.70;;;;;;;-4.52;71.31;94888.17;1876972;75;21143;-50
2020/12/27 04:41:52;;;;;;;85.35;40.35;;;;;;;-4.65;71.25;94882.67;1796622;79;21135;-50
2020/12/27 04:44:34;;;;;;;82.47;41.48;;;;;;;-4.66;71.55;94873.86;1873640;76;22667;-50
2020/12/27 04:47:04;;;;;;;81.17;41.80;;;;;;;-4.72;71.13;94882.52;1841618;78;21045;-49
2020/12/27 04:49:34;;;;;;;100.60;48.50;;;;;;;-4.78;70.96;94888.70;1839168;78;22082;-50
2020/12/27 04:52:05;;;;;;;104.83;48.45;;;;;;;-4.80;71.56;94896.91;1841361;77;21085;-49
2020/12/27 04:54:51;;;;;;;94.22;51.13;;;;;;;-4.66;71.62;94891.86;1841552;77;21069;-49
2020/12/27 04:57:28;;;;;;;125.30;63.10;;;;;;;-4.57;70.76;94879.05;1837445;78;21113;-49
2020/12/27 04:59:56;;;;;;;137.03;72.45;;;;;;;-4.61;70.75;94879.53;1841591;78;21102;-48
2020/12/27 05:02:33;;;;;;;118.62;61.85;;;;;;;-4.54;70.66;94885.05;1837136;78;21193;-49
2020/12/27 05:05:02;;;;;;;135.85;74.70;;;;;;;-4.49;70.36;94881.55;1841464;78;21085;-50
2020/12/27 05:07:34;;;;;;;100.92;51.30;;;;;;;-4.43;70.32;94884.75;1810430;77;21113;-50
2020/12/27 05:10:13;;;;;;;100.18;49.38;;;;;;;-4.41;70.19;94878.47;1805914;78;21042;-48
2020/12/27 05:12:44;;;;;;;115.25;55.03;;;;;;;-4.53;70.25;94879.36;1840922;77;21030;-49
2020/12/27 05:15:12;;;;;;;106.43;52.62;;;;;;;-4.51;70.57;94874.96;1841565;77;21498;-49
2020/12/27 05:17:41;;;;;;;115.45;55.92;;;;;;;-4.38;70.41;94876.42;1841498;77;21530;-49
2020/12/27 05:20:13;;;;;;;132.45;60.60;;;;;;;-4.23;69.83;94871.58;1841527;77;21053;-50
2020/12/27 05:22:42;;;;;;;169.47;81.33;;;;;;;-4.30;68.85;94868.17;1841861;77;21482;-49
2020/12/27 05:25:14;;;;;;;150.57;69.70;;;;;;;-4.53;68.70;94869.17;1841401;77;21069;-50
2020/12/27 05:27:57;;;;;;;158.97;71.42;;;;;;;-4.78;68.69;94867.83;1890057;76;21945;-49
2020/12/27 05:30:29;;;;;;;157.67;75.75;;;;;;;-5.09;68.86;94869.95;1793657;77;21136;-52
2020/12/27 05:33:05;;;;;;;;;;;;;;;-5.20;69.32;94878.83;1796673;77;21358;-49
2020/12/27 05:35:36;;;;;;;140.12;63.80;;;;;;;-5.20;69.43;94881.51;1858734;77;20248;-50
2020/12/27 05:38:07;;;;;;;134.63;62.88;;;;;;;-5.27;69.34;94885.36;1865998;76;21071;-50
2020/12/27 05:41:01;;;;;;;127.07;58.33;;;;;;;-5.33;69.70;94881.39;1873592;76;23248;-49
2020/12/27 05:43:32;;;;;;;131.45;63.95;;;;;;;-5.35;70.21;94882.30;1839187;78;21073;-51
2020/12/27 05:46:02;;;;;;;135.48;65.00;;;;;;;-5.29;69.99;94888.95;1786025;78;21199;-49
2020/12/27 05:48:31;;;;;;;126.20;60.63;;;;;;;-5.34;70.08;94886.53;1841615;78;21073;-50
2020/12/27 05:51:04;;;;;;;177.05;79.17;;;;;;;-5.41;70.23;94887.67;1811705;77;21065;-50
2020/12/27 05:53:34;;;;;;;167.05;75.75;;;;;;;-5.41;70.68;94884.23;1841263;78;21148;-51
2020/12/27 05:56:04;;;;;;;166.03;76.02;;;;;;;-5.33;70.18;94891.31;1841583;78;21112;-49
2020/12/27 05:58:34;;;;;;;157.32;75.60;;;;;;;-5.42;70.05;94886.11;1841132;78;22081;-50
2020/12/27 06:01:07;;;;;;;178.87;85.50;;;;;;;-5.47;70.00;94890.94;1839333;78;21085;-50
2020/12/27 06:03:40;;;;;;;203.30;100.50;;;;;;;-5.60;70.04;94892.90;1841519;78;21073;-49
2020/12/27 06:06:09;;;;;;;210.05;99.37;;;;;;;-5.62;70.37;94892.46;1812301;78;21073;-50
2020/12/27 06:09:04;;;;;;;225.82;114.67;;;;;;;-5.55;70.84;94884.64;1812374;78;21078;-50
2020/12/27 06:11:54;;;;;;;200.78;93.65;;;;;;;-5.39;70.23;94895.37;1840802;78;21189;-50
2020/12/27 06:14:41;;;;;;;453.88;171.90;;;;;;;-5.38;69.83;94899.03;1840091;78;21085;-50
2020/12/27 06:17:56;;;;;;;292.52;123.58;;;;;;;-5.45;69.96;94898.09;1841529;78;21041;-50
2020/12/27 06:20:28;;;;;;;168.75;77.08;;;;;;;-5.46;70.13;94893.86;1824504;78;21140;-51
2020/12/27 06:22:56;;;;;;;170.85;77.47;;;;;;;-5.45;70.16;94894.08;1841532;78;21113;-50
2020/12/27 06:25:27;;;;;;;182.85;82.90;;;;;;;-5.43;70.17;94891.25;1784451;78;21205;-50
2020/12/27 06:27:56;;;;;;;164.40;81.53;;;;;;;-5.43;70.06;94888.58;1841533;78;21573;-49
2020/12/27 06:30:32;;;;;;;171.32;80.62;;;;;;;-5.42;69.94;94888.03;1838716;77;21125;-50
2020/12/27 06:33:24;;;;;;;161.57;80.07;;;;;;;-5.49;70.00;94890.50;1836081;78;21053;-50
2020/12/27 06:35:52;;;;;;;147.75;71.57;;;;;;;-5.58;70.21;94894.67;1841580;78;21076;-50
2020/12/27 06:38:23;;;;;;;144.75;72.90;;;;;;;-5.58;70.30;94893.33;1829541;77;21327;-51
2020/12/27 06:41:09;;;;;;;154.75;74.60;;;;;;;-5.49;70.23;94883.80;1873625;75;21909;-50
2020/12/27 06:43:46;;;;;;;187.03;93.12;;;;;;;-5.57;70.01;94882.07;1813007;78;21053;-50
2020/12/27 06:46:27;;;;;;;151.68;82.75;;;;;;;-5.69;70.08;94877.55;1839736;78;21195;-51
2020/12/27 06:49:15;;;;;;;186.55;95.67;;;;;;;-5.71;70.00;94875.77;1828720;78;21090;-50
2020/12/27 06:52:19;;;;;;;185.97;96.92;;;;;;;-5.81;69.99;94878.20;1841517;77;20970;-51
2020/12/27 06:55:14;;;;;;;208.97;105.25;;;;;;;-5.85;70.40;94863.36;1873616;76;22287;-51
2020/12/27 06:57:47;;;;;;;266.20;121.53;;;;;;;-5.83;70.16;94867.81;1810935;78;21102;-50
2020/12/27 07:00:30;;;;;;;280.85;127.25;;;;;;;-5.84;69.90;94868.14;1839760;78;21490;-50
2020/12/27 07:03:13;;;;;;;360.00;145.90;;;;;;;-5.86;70.06;94866.37;1840621;78;21069;-50
2020/12/27 07:05:41;;;;;;;279.45;127.00;;;;;;;-5.85;70.18;94858.55;1839379;78;21069;-50
2020/12/27 07:08:12;;;;;;;289.45;139.35;;;;;;;-5.77;70.20;94861.05;1841630;77;21494;-51
2020/12/27 07:10:46;;;;;;;293.35;142.53;;;;;;;-5.68;70.29;94877.77;1841609;77;21077;-50
2020/12/27 07:13:15;;;;;;;294.77;138.47;;;;;;;-5.59;70.26;94877.05;1841545;77;21187;-50
2020/12/27 07:15:52;;;;;;;294.95;132.63;;;;;;;-5.46;70.31;94874.53;1841477;78;21069;-50
2020/12/27 07:18:27;;;;;;;298.93;137.62;;;;;;;-5.32;70.05;94870.88;1841518;78;21046;-51
2020/12/27 07:20:58;;;;;;;246.32;117.90;;;;;;;-5.13;69.95;94866.96;1841562;77;21066;-51
2020/12/27 07:23:30;;;;;;;152.50;82.60;;;;;;;-4.96;69.79;94871.98;1841560;77;21164;-51
2020/12/27 07:26:00;;;;;;;;;;;;;;;-4.85;69.54;94871.11;1815060;78;21185;-51
2020/12/27 07:28:29;;;;;;;239.60;116.45;;;;;;;-4.83;69.30;94870.20;1841613;77;20214;-52
2020/12/27 07:31:00;;;;;;;262.68;123.85;;;;;;;-4.80;69.29;94864.14;1841467;78;21093;-51
2020/12/27 07:33:37;;;;;;;286.70;138.85;;;;;;;-4.82;69.05;94864.28;1841476;78;21089;-51
2020/12/27 07:36:08;;;;;;;312.98;154.47;;;;;;;-4.93;68.72;94867.27;1841662;77;21533;-50
2020/12/27 07:38:53;;;;;;;290.20;148.93;;;;;;;-5.11;68.65;94870.08;1826319;78;21343;-50
2020/12/27 07:44:14;;;;;;;189.40;103.75;;;;;;;-5.03;69.08;94868.56;1873566;76;22812;-51
2020/12/27 07:46:43;;;;;;;221.53;120.00;;;;;;;-4.97;68.96;94877.13;1841617;78;21049;-51
2020/12/27 07:49:12;;;;;;;213.57;113.65;;;;;;;-4.88;68.98;94871.81;1841643;77;22237;-49
2020/12/27 07:51:42;;;;;;;158.22;84.17;;;;;;;-4.68;69.30;94868.62;1841431;78;21062;-51
2020/12/27 07:54:12;;;;;;;153.45;87.37;;;;;;;-4.35;68.86;94860.95;1841558;78;21077;-49
2020/12/27 07:56:43;;;;;;;78.35;43.08;;;;;;;-4.08;68.80;94857.33;1841520;77;21053;-50
2020/12/27 07:59:11;;;;;;;49.38;29.92;;;;;;;-3.84;68.14;94857.05;1841614;78;21046;-51
2020/12/27 08:01:40;;;;;;;78.25;44.20;;;;;;;-3.82;67.76;94850.20;1841559;77;22173;-50
2020/12/27 08:04:09;;;;;;;39.08;24.20;;;;;;;-3.81;67.59;94846.38;1841591;78;21505;-50
2020/12/27 08:06:42;;;;;;;34.08;21.52;;;;;;;-3.73;67.78;94849.99;1841514;78;21228;-49
2020/12/27 08:09:13;;;;;;;48.58;28.50;;;;;;;-3.64;67.57;94841.13;1841512;78;21081;-52
2020/12/27 08:11:43;;;;;;;54.88;34.50;;;;;;;-3.58;67.53;94834.33;1841583;77;21050;-50
2020/12/27 08:14:13;;;;;;;79.97;48.78;;;;;;;-3.53;67.46;94828.68;1841545;78;21182;-50
2020/12/27 08:16:42;;;;;;;75.60;43.08;;;;;;;-3.39;67.46;94821.64;1841515;77;21529;-50
2020/12/27 08:19:15;;;;;;;99.28;57.50;;;;;;;-3.24;67.49;94812.11;1841542;77;21218;-49
2020/12/27 08:21:45;;;;;;;91.08;49.53;;;;;;;-3.15;67.55;94808.63;1841804;77;21144;-50
2020/12/27 08:24:16;;;;;;;67.70;40.45;;;;;;;-3.03;67.47;94804.98;1839825;78;21105;-52
2020/12/27 08:26:46;;;;;;;154.63;83.65;;;;;;;-3.01;67.46;94811.56;1841523;77;21186;-49
2020/12/27 08:29:23;;;;;;;157.52;87.05;;;;;;;-3.01;67.32;94812.91;1841589;77;21549;-52
2020/12/27 08:31:57;;;;;;;159.03;90.15;;;;;;;-2.90;67.50;94805.77;1841525;78;21058;-50
2020/12/27 08:34:26;;;;;;;125.38;67.95;;;;;;;-2.74;67.61;94798.88;1840676;78;21138;-51
2020/12/27 08:36:57;;;;;;;122.33;65.25;;;;;;;-2.65;67.53;94796.14;1841554;78;21117;-50
2020/12/27 08:39:44;;;;;;;97.17;59.85;;;;;;;-2.62;67.40;94794.09;1815235;78;21185;-51
2020/12/27 08:42:45;;;;;;;80.17;47.93;;;;;;;-2.58;66.95;94785.50;1808543;78;21137;-50
2020/12/27 08:45:17;;;;;;;102.07;59.00;;;;;;;-2.43;67.01;94781.87;1814150;78;21187;-50
2020/12/27 08:48:09;;;;;;;78.35;43.13;;;;;;;-2.24;66.12;94773.66;1814178;79;21116;-50
2020/12/27 08:50:41;;;;;;;59.70;35.85;;;;;;;-1.94;65.49;94776.33;1814301;79;21069;-51
2020/12/27 08:53:09;;;;;;;44.10;27.63;;;;;;;-1.60;64.85;94769.20;1814554;79;22208;-52
2020/12/27 08:55:38;;;;;;;46.37;27.62;;;;;;;-1.18;64.00;94769.63;1813506;78;21844;-50
2020/12/27 08:58:12;;;;;;;44.10;26.97;;;;;;;-0.77;63.15;94757.63;1810858;79;21065;-49
2020/12/27 09:00:47;;;;;;;36.23;23.50;;;;;;;-0.65;62.32;94754.60;1813497;79;21216;-51
2020/12/27 09:03:14;;;;;;;27.10;18.70;;;;;;;-0.46;61.50;94734.08;1813560;79;21223;-52
2020/12/27 09:05:42;;;;;;;29.55;20.95;;;;;;;-0.27;61.23;94729.17;1813570;79;21338;-51
2020/12/27 09:08:17;;;;;;;63.00;36.60;;;;;;;-0.02;61.02;94725.23;1813533;79;21105;-50
2020/12/27 09:10:45;;;;;;;81.08;43.78;;;;;;;0.25;60.85;94725.31;1813581;79;21117;-50
2020/12/27 09:13:15;;;;;;;89.95;47.78;;;;;;;0.30;60.85;94720.91;1813543;79;21148;-50
2020/12/27 09:15:47;;;;;;;77.40;42.30;;;;;;;0.24;60.65;94712.95;1813597;78;21153;-50
2020/12/27 09:18:30;;;;;;;62.53;35.98;;;;;;;0.46;60.45;94720.55;1813626;79;21198;-51
2020/12/27 09:21:00;;;;;;;49.60;28.60;;;;;;;0.58;59.85;94726.37;1812888;79;21101;-49
2020/12/27 09:23:28;;;;;;;43.92;26.15;;;;;;;0.67;59.21;94728.70;1813565;78;21482;-52
2020/12/27 09:26:09;;;;;;;37.88;23.40;;;;;;;0.69;58.80;94724.47;1813550;78;21501;-50
2020/12/27 09:28:40;;;;;;;51.75;29.07;;;;;;;0.84;59.32;94717.91;1813593;79;21077;-51
2020/12/27 09:31:13;;;;;;;63.55;37.48;;;;;;;1.16;58.92;94715.20;1813689;79;22215;-49
2020/12/27 09:33:48;;;;;;;50.03;31.35;;;;;;;1.49;59.15;94699.88;1813676;79;21121;-50
2020/12/27 09:36:17;;;;;;;65.57;39.13;;;;;;;1.96;58.50;94699.52;1786563;79;21172;-51
2020/12/27 09:38:48;;;;;;;53.30;32.30;;;;;;;2.54;57.17;94690.72;1813507;77;21141;-49
2020/12/27 09:41:20;;;;;;;47.75;30.12;;;;;;;3.05;55.67;94693.47;1813603;79;21144;-50
2020/12/27 09:43:52;;;;;;;35.30;23.50;;;;;;;3.01;54.15;94679.13;1810188;77;22088;-49
2020/12/27 09:46:49;;;;;;;41.00;27.95;;;;;;;2.75;53.95;94666.92;1807840;78;21080;-50
2020/12/27 09:49:29;;;;;;;61.90;36.05;;;;;;;2.47;54.13;94673.89;1807873;79;21109;-51
2020/12/27 09:52:08;;;;;;;65.50;36.68;;;;;;;2.39;54.50;94666.97;1807963;79;21560;-50
2020/12/27 09:54:37;;;;;;;61.85;33.40;;;;;;;2.45;54.31;94665.94;1779244;79;21144;-50
2020/12/27 09:57:16;;;;;;;62.45;33.15;;;;;;;2.71;53.84;94661.33;1807825;79;21378;-52
2020/12/27 09:59:46;;;;;;;50.28;29.30;;;;;;;2.89;53.38;94660.61;1807803;79;21165;-51
2020/12/27 10:02:15;;;;;;;30.72;19.42;;;;;;;2.88;53.38;94657.10;1807808;78;21170;-49
2020/12/27 10:04:44;;;;;;;30.35;19.85;;;;;;;3.01;52.86;94657.39;1807838;79;21592;-50
2020/12/27 10:07:13;;;;;;;29.67;19.85;;;;;;;3.52;51.77;94658.84;1807804;79;21084;-49
2020/12/27 10:09:41;;;;;;;30.85;20.10;;;;;;;3.95;50.52;94657.22;1807821;78;21306;-50
2020/12/27 10:12:11;;;;;;;27.65;18.30;;;;;;;4.18;49.89;94643.70;1807775;79;21510;-54
2020/12/27 10:14:40;;;;;;;26.05;16.25;;;;;;;4.26;49.64;94642.42;1807851;79;21089;-52
2020/12/27 10:17:10;;;;;;;17.90;12.33;;;;;;;4.45;49.27;94635.56;1807829;79;21076;-50
2020/12/27 10:19:38;;;;;;;22.67;14.70;;;;;;;4.56;48.78;94628.78;1807802;79;21113;-50
2020/12/27 10:22:06;;;;;;;15.53;12.03;;;;;;;4.56;48.77;94621.97;1807753;79;21433;-54
2020/12/27 10:24:35;;;;;;;13.15;11.57;;;;;;;4.62;48.39;94617.59;1807836;79;21148;-52
2020/12/27 10:27:06;;;;;;;21.52;16.40;;;;;;;5.02;47.75;94621.26;1807834;79;21408;-51
2020/12/27 10:29:34;;;;;;;22.40;17.12;;;;;;;5.38;47.06;94616.16;1807941;79;21196;-50
2020/12/27 10:32:06;;;;;;;20.80;14.47;;;;;;;5.58;46.71;94597.86;1807877;79;21077;-53
2020/12/27 10:34:34;;;;;;;24.70;16.87;;;;;;;5.66;46.84;94601.41;1807769;79;21195;-50
2020/12/27 10:37:03;;;;;;;40.10;24.57;;;;;;;5.63;46.23;94602.22;1807713;78;21097;-53
2020/12/27 10:39:32;;;;;;;31.17;19.35;;;;;;;5.60;46.82;94595.48;1807729;78;21057;-50
2020/12/27 10:42:00;;;;;;;33.53;19.75;;;;;;;5.66;46.57;94590.48;1807782;79;21065;-51
2020/12/27 10:44:29;;;;;;;24.05;14.43;;;;;;;5.50;46.53;94580.07;1802049;79;21477;-50
2020/12/27 10:46:59;;;;;;;33.85;17.62;;;;;;;5.41;46.03;94583.34;1799832;78;21191;-52
2020/12/27 10:49:27;;;;;;;17.55;12.80;;;;;;;5.43;45.66;94574.76;1799780;79;21212;-49
2020/12/27 10:51:56;;;;;;;18.67;12.93;;;;;;;5.58;46.00;94580.13;1799765;79;21124;-49
2020/12/27 10:54:26;;;;;;;17.42;12.23;;;;;;;5.83;45.79;94578.45;1799881;78;21120;-50
2020/12/27 10:56:55;;;;;;;35.75;23.80;;;;;;;6.21;45.10;94581.58;1799834;79;21152;-49
2020/12/27 10:59:23;;;;;;;28.87;19.20;;;;;;;6.58;44.96;94575.67;1799646;78;21370;-49
2020/12/27 11:01:53;;;;;;;23.55;17.40;;;;;;;6.71;44.12;94566.37;1790492;79;21493;-51
2020/12/27 11:04:21;;;;;;;22.70;15.05;;;;;;;6.68;44.00;94571.33;1778150;79;21082;-49
2020/12/27 11:06:50;;;;;;;17.23;11.08;;;;;;;6.53;43.84;94564.64;1780398;79;21066;-51
2020/12/27 11:09:19;;;;;;;24.35;14.15;;;;;;;6.35;43.65;94549.25;1793938;79;21049;-52
2020/12/27 11:11:49;;;;;;;17.85;11.38;;;;;;;6.12;44.54;94540.44;1769397;79;21173;-51
2020/12/27 11:14:18;;;;;;;14.45;10.72;;;;;;;6.06;44.11;94537.43;1715699;81;21106;-50
2020/12/27 11:16:49;;;;;;;19.23;12.82;;;;;;;6.04;44.12;94534.94;1764651;80;21648;-50
2020/12/27 11:19:18;;;;;;;25.20;16.17;;;;;;;5.95;44.33;94534.76;1764617;80;21154;-50
2020/12/27 11:21:47;;;;;;;29.92;18.70;;;;;;;5.96;44.76;94530.84;1764748;81;21109;-52
2020/12/27 11:24:16;;;;;;;24.02;16.25;;;;;;;5.97;44.88;94529.03;1764658;81;22154;-52
2020/12/27 11:26:44;;;;;;;23.55;14.90;;;;;;;5.93;44.76;94526.22;1764634;80;21082;-50
2020/12/27 11:29:12;;;;;;;22.50;15.55;;;;;;;5.88;45.20;94530.22;1764799;80;21482;-50
2020/12/27 11:31:42;;;;;;;36.98;29.55;;;;;;;5.71;45.54;94527.80;1764736;81;21062;-50
2020/12/27 11:34:11;;;;;;;23.83;17.42;;;;;;;5.83;45.13;94522.50;1764745;81;21070;-51
2020/12/27 11:36:39;;;;;;;15.95;13.22;;;;;;;6.08;44.61;94516.52;1764719;81;21195;-50
2020/12/27 11:39:08;;;;;;;16.10;11.90;;;;;;;6.30;44.76;94501.20;1764599;81;21177;-51
2020/12/27 11:41:39;;;;;;;16.65;11.90;;;;;;;6.62;44.25;94510.18;1761966;81;21483;-49
2020/12/27 11:44:08;;;;;;;22.02;15.63;;;;;;;6.74;43.50;94493.69;1765710;80;21212;-53
2020/12/27 11:46:36;;;;;;;25.30;16.23;;;;;;;6.95;43.53;94500.77;1709044;82;21197;-52